Time;durP1;ratioP1;P1;durP2;ratioP2;P2;SDS_P1;SDS_P2;PMS_P1;PMS_P2;Temp;Humidity;BMP_temperature;BMP_pressure;BME280_temperature;BME280_humidity;BME280_pressure;Samples;Min_cycle;Max_cycle;Signal;HPM_P1;HPM_P2
2022/02/13 00:01:53;;;;;;;15.10;9.75;;;0.60;2.00;;;;;;7384123;19;20018;-59
2022/02/13 00:04:23;;;;;;;17.33;9.13;;;0.70;1.50;;;;;;7365633;19;20116;-59
2022/02/13 00:06:56;;;;;;;14.15;9.68;;;0.70;1.50;;;;;;7368358;19;20348;-60
2022/02/13 00:09:28;;;;;;;14.75;9.27;;;0.60;1.50;;;;;;7367999;19;20423;-59
2022/02/13 00:12:02;;;;;;;15.35;9.25;;;0.70;1.40;;;;;;7360431;19;20359;-60
2022/02/13 00:14:33;;;;;;;15.00;9.38;;;0.70;1.20;;;;;;7368300;19;20014;-59
2022/02/13 00:17:03;;;;;;;15.95;9.75;;;0.70;1.10;;;;;;7390138;19;20035;-60
2022/02/13 00:19:33;;;;;;;17.13;9.32;;;0.70;1.70;;;;;;7366426;19;20394;-60
2022/02/13 00:22:02;;;;;;;14.43;9.20;;;0.70;1.50;;;;;;7360021;19;20094;-59
2022/02/13 00:24:32;;;;;;;16.05;9.60;;;0.70;2.20;;;;;;7369413;19;20436;-58
2022/02/13 00:27:07;;;;;;;19.02;9.32;;;0.70;1.50;;;;;;7365459;19;20358;-58
2022/02/13 00:29:36;;;;;;;14.95;9.05;;;0.80;1.00;;;;;;7366633;19;20478;-59
2022/02/13 00:32:07;;;;;;;14.65;9.57;;;0.80;1.20;;;;;;7382118;19;20009;-59
2022/02/13 00:34:37;;;;;;;20.13;10.05;;;0.80;1.20;;;;;;7365007;19;20022;-59
2022/02/13 00:37:08;;;;;;;15.77;8.63;;;0.70;1.70;;;;;;7367562;19;20010;-59
2022/02/13 00:39:38;;;;;;;14.30;10.00;;;0.60;2.10;;;;;;7368021;19;20011;-60
2022/02/13 00:42:11;;;;;;;15.13;9.43;;;0.70;1.80;;;;;;7358453;19;20437;-60
2022/02/13 00:44:41;;;;;;;14.70;8.52;;;0.70;1.90;;;;;;7368217;19;20048;-59
2022/02/13 00:47:12;;;;;;;20.77;10.15;;;0.60;1.90;;;;;;7390093;19;20077;-59
2022/02/13 00:49:42;;;;;;;14.05;9.02;;;0.60;2.20;;;;;;7365292;19;20014;-59
2022/02/13 00:52:12;;;;;;;13.35;9.50;;;0.60;2.30;;;;;;7355916;19;20374;-59
2022/02/13 00:54:41;;;;;;;15.60;9.60;;;0.60;2.50;;;;;;7366101;19;20464;-59
2022/02/13 00:57:14;;;;;;;21.08;10.30;;;0.50;2.40;;;;;;7367811;19;20022;-59
2022/02/13 00:59:44;;;;;;;17.38;9.80;;;0.40;2.50;;;;;;7365838;19;20086;-59
2022/02/13 01:02:13;;;;;;;17.08;10.25;;;0.40;3.50;;;;;;7374256;19;20021;-61
2022/02/13 01:04:43;;;;;;;16.50;10.32;;;0.40;3.50;;;;;;7386066;19;20014;-59
2022/02/13 01:07:13;;;;;;;18.10;10.35;;;0.50;3.40;;;;;;7367208;19;20014;-59
2022/02/13 01:09:43;;;;;;;15.82;10.60;;;0.40;3.00;;;;;;7366249;19;20010;-60
2022/02/13 01:12:15;;;;;;;16.17;10.60;;;0.50;3.30;;;;;;7358552;19;20078;-60
2022/02/13 01:14:46;;;;;;;14.80;9.38;;;0.50;3.40;;;;;;7367265;19;20007;-60
2022/02/13 01:17:16;;;;;;;18.88;9.70;;;0.50;3.20;;;;;;7367924;19;20455;-60
2022/02/13 01:19:45;;;;;;;13.52;8.88;;;0.50;3.20;;;;;;7386336;19;20021;-59
2022/02/13 01:22:15;;;;;;;13.48;8.60;;;0.60;2.90;;;;;;7358086;19;20010;-59
2022/02/13 01:24:45;;;;;;;17.00;9.50;;;0.60;3.00;;;;;;7366487;19;20007;-59
2022/02/13 01:27:18;;;;;;;15.40;9.52;;;0.50;3.10;;;;;;7366248;19;20014;-59
2022/02/13 01:29:47;;;;;;;15.13;9.55;;;0.60;2.70;;;;;;7365382;19;20372;-60
2022/02/13 01:32:17;;;;;;;17.38;9.95;;;0.40;3.30;;;;;;7357918;19;20412;-61
2022/02/13 01:34:47;;;;;;;15.32;9.60;;;0.50;3.30;;;;;;7385177;19;20017;-58
2022/02/13 01:37:17;;;;;;;19.52;10.57;;;0.40;3.30;;;;;;7367009;19;20015;-60
2022/02/13 01:39:47;;;;;;;15.35;9.63;;;0.50;3.30;;;;;;7366297;19;20018;-59
2022/02/13 01:42:20;;;;;;;20.63;10.07;;;0.60;2.60;;;;;;7356197;19;20364;-59
2022/02/13 01:44:52;;;;;;;15.63;10.77;;;0.50;2.60;;;;;;7366762;19;20018;-60
2022/02/13 01:47:22;;;;;;;13.52;8.88;;;0.50;2.40;;;;;;7366676;19;20014;-58
2022/02/13 01:49:52;;;;;;;16.20;9.50;;;0.40;3.20;;;;;;7385911;19;20047;-58
2022/02/13 01:52:22;;;;;;;14.77;10.23;;;0.40;3.70;;;;;;7358333;19;20017;-58
2022/02/13 01:54:52;;;;;;;16.83;9.77;;;0.30;4.20;;;;;;7366013;19;20072;-58
2022/02/13 01:57:24;;;;;;;15.15;9.82;;;0.40;4.00;;;;;;7364537;19;20523;-59
2022/02/13 01:59:54;;;;;;;16.30;10.00;;;0.40;3.80;;;;;;7363899;19;20348;-59
2022/02/13 02:02:24;;;;;;;17.17;9.15;;;0.50;3.70;;;;;;7359811;19;20018;-59
2022/02/13 02:04:54;;;;;;;18.75;10.70;;;0.40;3.80;;;;;;7384480;19;20010;-59
2022/02/13 02:07:24;;;;;;;14.65;8.93;;;0.40;4.10;;;;;;7362444;19;20695;-59
2022/02/13 02:09:55;;;;;;;16.30;9.63;;;0.40;3.70;;;;;;7365985;19;20085;-59
2022/02/13 02:12:28;;;;;;;14.93;9.35;;;0.50;3.70;;;;;;7356917;19;20010;-59
2022/02/13 02:14:58;;;;;;;13.60;9.20;;;0.50;3.60;;;;;;7363770;19;20007;-58
2022/02/13 02:17:28;;;;;;;15.38;9.13;;;0.50;3.50;;;;;;7367212;19;20025;-59
2022/02/13 02:19:57;;;;;;;14.70;9.38;;;0.50;3.50;;;;;;7385577;19;20076;-59
2022/02/13 02:22:27;;;;;;;15.90;9.70;;;0.50;3.60;;;;;;7355999;19;20090;-58
2022/02/13 02:25:00;;;;;;;14.73;9.50;;;0.50;3.50;;;;;;7364537;19;20082;-58
2022/02/13 02:27:30;;;;;;;16.27;8.82;;;0.40;3.90;;;;;;7364740;19;20028;-58
2022/02/13 02:29:59;;;;;;;16.98;9.80;;;0.50;3.90;;;;;;7363218;19;20017;-59
2022/02/13 02:32:29;;;;;;;15.90;9.80;;;0.50;3.90;;;;;;7358191;19;20051;-59
2022/02/13 02:34:59;;;;;;;16.83;9.57;;;0.50;4.10;;;;;;7384661;19;20655;-59
2022/02/13 02:37:29;;;;;;;13.43;8.32;;;0.50;3.90;;;;;;7362545;19;20021;-59
2022/02/13 02:40:01;;;;;;;14.15;9.15;;;0.50;4.20;;;;;;7365038;19;20021;-59
2022/02/13 02:42:31;;;;;;;13.50;8.65;;;0.50;4.10;;;;;;7356063;19;20511;-59
2022/02/13 02:45:01;;;;;;;16.08;9.18;;;0.60;3.70;;;;;;7362022;19;20098;-59
2022/02/13 02:47:31;;;;;;;15.05;8.75;;;0.60;3.20;;;;;;7364585;19;20031;-59
2022/02/13 02:50:01;;;;;;;16.65;8.48;;;0.60;3.40;;;;;;7384069;19;20035;-58
2022/02/13 02:52:32;;;;;;;15.77;9.05;;;0.60;3.90;;;;;;7354767;19;20031;-58
2022/02/13 02:55:05;;;;;;;15.80;8.95;;;0.60;4.10;;;;;;7363184;19;20011;-59
2022/02/13 02:57:35;;;;;;;14.20;9.38;;;0.50;4.40;;;;;;7363153;19;20471;-60
2022/02/13 03:00:07;;;;;;;12.85;8.93;;;0.50;4.50;;;;;;7362628;19;20014;-59
2022/02/13 03:02:37;;;;;;;15.50;9.05;;;0.50;4.50;;;;;;7356450;19;20022;-59
2022/02/13 03:05:08;;;;;;;13.05;8.63;;;0.50;4.60;;;;;;7382818;19;20385;-60
2022/02/13 03:07:38;;;;;;;14.27;9.00;;;0.60;4.10;;;;;;7362680;19;20019;-59
2022/02/13 03:10:11;;;;;;;14.73;8.77;;;0.50;4.40;;;;;;7364994;19;20082;-60
2022/02/13 03:12:41;;;;;;;12.63;8.60;;;0.40;4.70;;;;;;7354174;19;20031;-60
2022/02/13 03:15:12;;;;;;;15.43;9.30;;;0.40;5.30;;;;;;7362645;19;20537;-60
2022/02/13 03:17:41;;;;;;;16.00;9.48;;;0.40;5.30;;;;;;7363145;19;20019;-60
2022/02/13 03:20:13;;;;;;;15.23;9.65;;;0.20;5.50;;;;;;7386753;19;20469;-59
2022/02/13 03:22:43;;;;;;;18.45;10.73;;;0.20;5.90;;;;;;7361660;19;20010;-60
2022/02/13 03:25:15;;;;;;;17.60;9.93;;;0.20;6.30;;;;;;7371037;19;20470;-59
2022/02/13 03:27:45;;;;;;;16.35;10.80;;;0.10;6.70;;;;;;7369308;19;20114;-59
2022/02/13 03:30:15;;;;;;;17.02;10.10;;;0.10;6.50;;;;;;7369234;19;20077;-60
2022/02/13 03:32:45;;;;;;;18.02;10.50;;;0.00;7.20;;;;;;7363915;19;20010;-59
2022/02/13 03:35:15;;;;;;;19.52;10.68;;;0.10;6.90;;;;;;7369021;19;20014;-60
2022/02/13 03:37:45;;;;;;;14.05;9.32;;;0.20;6.90;;;;;;7389868;19;20470;-61
2022/02/13 03:40:18;;;;;;;16.10;9.85;;;0.30;6.40;;;;;;7371598;19;20014;-58
2022/02/13 03:42:48;;;;;;;17.20;9.52;;;0.30;6.50;;;;;;7361688;19;20014;-59
2022/02/13 03:45:18;;;;;;;15.18;9.43;;;0.20;6.30;;;;;;7368937;19;20055;-60
2022/02/13 03:47:48;;;;;;;14.38;9.43;;;0.30;6.60;;;;;;7370492;19;20027;-59
2022/02/13 03:50:18;;;;;;;30.40;12.23;;;0.40;6.10;;;;;;7367815;19;20002;-60
2022/02/13 03:52:48;;;;;;;32.30;16.00;;;0.30;6.40;;;;;;7380242;19;20092;-59
2022/02/13 03:55:21;;;;;;;24.70;12.30;;;0.30;6.60;;;;;;7368814;19;20002;-59
2022/02/13 03:57:51;;;;;;;22.88;12.82;;;0.30;6.20;;;;;;7365363;19;20020;-60
2022/02/13 04:00:21;;;;;;;18.50;11.48;;;0.40;6.00;;;;;;7368673;19;20006;-59
2022/02/13 04:02:55;;;;;;;16.13;9.38;;;0.30;6.50;;;;;;7362511;19;20022;-58
2022/02/13 04:05:25;;;;;;;16.70;10.03;;;0.30;6.90;;;;;;7366565;19;20019;-58
2022/02/13 04:07:55;;;;;;;14.80;8.90;;;0.30;6.90;;;;;;7387488;19;20310;-59
2022/02/13 04:10:28;;;;;;;18.88;9.27;;;0.30;6.70;;;;;;7370740;19;20082;-59
2022/02/13 04:12:57;;;;;;;15.48;9.05;;;0.20;7.10;;;;;;7359194;19;20098;-59
2022/02/13 04:15:28;;;;;;;19.63;9.82;;;0.20;7.20;;;;;;7365839;19;20457;-59
2022/02/13 04:17:57;;;;;;;15.27;9.85;;;0.10;7.30;;;;;;7369747;19;20019;-59
2022/02/13 04:20:27;;;;;;;15.52;9.13;;;0.10;7.60;;;;;;7368127;19;20002;-59
2022/02/13 04:22:57;;;;;;;13.88;8.68;;;0.00;7.80;;;;;;7381987;19;20009;-59
2022/02/13 04:25:29;;;;;;;16.40;9.00;;;0.20;8.80;;;;;;7369845;19;20016;-59
2022/02/13 04:27:59;;;;;;;14.85;9.77;;;0.10;8.50;;;;;;7365924;19;20397;-59
2022/02/13 04:30:29;;;;;;;16.02;9.65;;;0.10;8.70;;;;;;7367639;19;20035;-59
2022/02/13 04:32:59;;;;;;;13.13;9.48;;;0.10;8.50;;;;;;7362968;19;20011;-59
2022/02/13 04:35:30;;;;;;;15.68;9.02;;;0.20;8.30;;;;;;7365470;19;20038;-59
2022/02/13 04:38:00;;;;;;;13.57;8.75;;;0.10;8.20;;;;;;7388276;19;20019;-59
2022/02/13 04:40:33;;;;;;;15.07;9.38;;;0.10;8.50;;;;;;7370018;19;20047;-59
2022/02/13 04:43:03;;;;;;;14.48;9.88;;;0.20;8.60;;;;;;7359167;19;20492;-59
2022/02/13 04:45:32;;;;;;;16.45;9.90;;;0.10;8.70;;;;;;7366283;19;20085;-59
2022/02/13 04:48:02;;;;;;;17.35;9.68;;;0.10;8.80;;;;;;7367558;19;20020;-59
2022/02/13 04:50:32;;;;;;;16.10;10.18;;;0.10;8.80;;;;;;7365914;19;20421;-59
2022/02/13 04:53:02;;;;;;;15.27;8.82;;;0.10;8.90;;;;;;7380393;19;20349;-60
2022/02/13 04:55:35;;;;;;;17.85;9.98;;;0.20;9.00;;;;;;7366506;19;20021;-60
2022/02/13 04:58:06;;;;;;;16.58;9.77;;;0.20;8.80;;;;;;7364622;19;20018;-58
2022/02/13 05:00:36;;;;;;;16.23;10.20;;;0.10;8.90;;;;;;7366589;19;20018;-58
2022/02/13 05:03:06;;;;;;;14.32;9.52;;;0.10;8.70;;;;;;7360415;19;20022;-58
2022/02/13 05:05:36;;;;;;;18.20;9.82;;;0.20;8.50;;;;;;7365622;19;20097;-59
2022/02/13 05:08:07;;;;;;;13.88;9.13;;;0.20;8.60;;;;;;7384600;19;20032;-59
2022/02/13 05:10:39;;;;;;;20.35;10.27;;;0.20;8.60;;;;;;7363620;19;20086;-59
2022/02/13 05:13:09;;;;;;;14.07;9.15;;;0.30;8.30;;;;;;7346436;19;20021;-58
2022/02/13 05:15:39;;;;;;;16.35;9.32;;;0.30;8.10;;;;;;7354948;19;20006;-59
2022/02/13 05:18:09;;;;;;;18.88;9.68;;;0.40;8.00;;;;;;7359987;19;20017;-60
2022/02/13 05:20:39;;;;;;;15.23;9.38;;;0.40;7.60;;;;;;7357951;19;20018;-59
2022/02/13 05:23:09;;;;;;;14.95;9.50;;;0.30;7.50;;;;;;7373835;19;20011;-59
2022/02/13 05:25:41;;;;;;;14.13;8.55;;;0.30;7.90;;;;;;7368097;19;20014;-58
2022/02/13 05:28:12;;;;;;;15.23;8.80;;;0.30;7.80;;;;;;7365265;19;20017;-59
2022/02/13 05:30:42;;;;;;;20.30;10.23;;;0.30;7.70;;;;;;7366128;19;20014;-58
2022/02/13 05:33:12;;;;;;;16.63;9.20;;;0.30;7.80;;;;;;7359060;19;20380;-59
2022/02/13 05:35:42;;;;;;;13.57;9.73;;;0.20;8.30;;;;;;7364056;19;20025;-59
2022/02/13 05:38:12;;;;;;;17.25;9.60;;;0.20;8.50;;;;;;7387191;19;20108;-59
2022/02/13 05:40:45;;;;;;;16.00;9.68;;;0.20;8.20;;;;;;7367993;19;20010;-59
2022/02/13 05:43:14;;;;;;;14.10;8.95;;;0.20;8.10;;;;;;7355633;19;20398;-59
2022/02/13 05:45:44;;;;;;;16.20;10.02;;;0.20;8.20;;;;;;7364268;19;20017;-59
2022/02/13 05:48:15;;;;;;;14.57;8.80;;;0.10;8.40;;;;;;7366297;19;20026;-59
2022/02/13 05:50:45;;;;;;;18.92;9.75;;;0.10;9.00;;;;;;7366290;19;20387;-59
2022/02/13 05:53:15;;;;;;;17.40;9.35;;;0.10;9.00;;;;;;7357813;19;20459;-59
2022/02/13 05:55:49;;;;;;;16.35;9.38;;;0.10;8.80;;;;;;7387465;19;20011;-58
2022/02/13 05:58:19;;;;;;;14.95;9.90;;;0.10;9.20;;;;;;7364505;19;20013;-59
2022/02/13 06:00:49;;;;;;;15.55;9.38;;;0.10;9.00;;;;;;7365198;19;20056;-59
2022/02/13 06:03:19;;;;;;;15.63;9.05;;;0.10;9.00;;;;;;7359432;19;20022;-59
2022/02/13 06:05:49;;;;;;;15.98;9.40;;;0.10;9.30;;;;;;7364043;19;20338;-59
2022/02/13 06:08:19;;;;;;;15.63;9.35;;;0.00;9.40;;;;;;7364834;19;20006;-60
2022/02/13 06:10:53;;;;;;;17.02;8.80;;;0.00;9.90;;;;;;7388099;19;20014;-59
2022/02/13 06:13:23;;;;;;;18.95;10.70;;;-0.10;10.00;;;;;;7357701;19;20018;-59
2022/02/13 06:15:53;;;;;;;14.55;9.38;;;0.00;10.40;;;;;;7363126;19;20010;-59
2022/02/13 06:18:23;;;;;;;15.38;9.63;;;-0.10;10.50;;;;;;7365199;19;20469;-58
2022/02/13 06:20:54;;;;;;;16.08;10.15;;;-0.10;10.80;;;;;;7362736;19;20066;-58
2022/02/13 06:23:23;;;;;;;18.92;9.93;;;-0.20;11.40;;;;;;7359179;19;20726;-58
2022/02/13 06:25:58;;;;;;;15.32;10.23;;;-0.20;11.30;;;;;;7387599;19;20358;-58
2022/02/13 06:28:28;;;;;;;17.75;10.07;;;-0.10;11.60;;;;;;7364027;19;20078;-59
2022/02/13 06:30:59;;;;;;;15.35;9.77;;;-0.20;11.40;;;;;;7361231;19;20031;-60
2022/02/13 06:33:28;;;;;;;17.65;9.75;;;-0.20;11.70;;;;;;7359812;19;20018;-58
2022/02/13 06:35:58;;;;;;;23.58;12.57;;;-0.20;11.90;;;;;;7362851;19;20084;-59
2022/02/13 06:38:28;;;;;;;25.75;13.00;;;-0.10;12.60;;;;;;7363226;19;20028;-59
2022/02/13 06:41:02;;;;;;;20.58;11.02;;;-0.10;12.00;;;;;;7384948;19;20009;-58
2022/02/13 06:43:33;;;;;;;16.50;9.57;;;0.00;11.50;;;;;;7357619;19;20021;-59
2022/02/13 06:46:03;;;;;;;16.98;9.55;;;0.10;11.80;;;;;;7361886;19;20074;-60
2022/02/13 06:48:33;;;;;;;15.35;9.35;;;0.10;10.80;;;;;;7364080;19;20437;-59
2022/02/13 06:51:04;;;;;;;18.17;9.35;;;0.10;11.00;;;;;;7360752;19;20010;-59
2022/02/13 06:53:33;;;;;;;17.77;9.63;;;0.30;10.70;;;;;;7359371;19;20087;-60
2022/02/13 06:56:07;;;;;;;17.55;10.68;;;0.30;10.20;;;;;;7384715;19;20467;-58
2022/02/13 06:58:37;;;;;;;16.70;9.63;;;0.30;10.10;;;;;;7361954;19;20014;-59
2022/02/13 07:01:09;;;;;;;14.05;9.20;;;0.30;10.10;;;;;;7358245;19;20089;-59
2022/02/13 07:03:39;;;;;;;14.82;9.13;;;0.30;10.10;;;;;;7361416;19;20036;-58
2022/02/13 07:06:09;;;;;;;15.07;9.02;;;0.30;10.60;;;;;;7362202;19;20371;-58
2022/02/13 07:08:39;;;;;;;14.88;8.85;;;0.30;11.00;;;;;;7363225;19;20498;-57
2022/02/13 07:11:11;;;;;;;15.48;8.57;;;0.40;10.40;;;;;;7381254;19;20057;-60
2022/02/13 07:13:41;;;;;;;14.30;8.50;;;0.50;9.70;;;;;;7357371;19;20534;-59
2022/02/13 07:16:11;;;;;;;13.60;8.50;;;0.50;9.20;;;;;;7361288;19;20014;-58
2022/02/13 07:18:41;;;;;;;13.60;8.55;;;0.60;8.80;;;;;;7363291;19;20030;-59
2022/02/13 07:21:10;;;;;;;13.00;8.02;;;0.80;8.20;;;;;;7358783;19;20011;-59
2022/02/13 07:23:40;;;;;;;14.25;8.88;;;0.80;7.60;;;;;;7357886;19;20050;-59
2022/02/13 07:26:13;;;;;;;13.52;8.57;;;0.90;7.00;;;;;;7385324;19;20468;-58
2022/02/13 07:31:25;;;;;;;25.27;8.98;;;0.90;6.70;;;;;;7356298;19;20017;-59
2022/02/13 07:33:55;;;;;;;13.57;8.20;;;1.10;6.50;;;;;;7358975;19;20443;-58
2022/02/13 07:36:26;;;;;;;14.27;8.48;;;1.20;5.90;;;;;;7361332;19;20003;-58
2022/02/13 07:38:56;;;;;;;17.60;9.07;;;1.20;5.80;;;;;;7362062;19;20025;-59
2022/02/13 07:41:29;;;;;;;14.32;8.38;;;1.30;5.40;;;;;;7358839;19;20010;-60
2022/02/13 07:43:59;;;;;;;11.05;7.95;;;1.30;5.00;;;;;;7379252;19;20014;-60
2022/02/13 07:46:29;;;;;;;12.50;8.07;;;1.40;4.70;;;;;;7359458;19;20026;-60
2022/02/13 07:49:00;;;;;;;15.80;8.70;;;1.40;4.20;;;;;;7361966;19;20025;-59
2022/02/13 07:51:31;;;;;;;14.15;8.07;;;1.50;4.10;;;;;;7357425;19;20006;-60
2022/02/13 07:54:01;;;;;;;14.43;8.05;;;1.60;3.70;;;;;;7356626;19;20035;-59
2022/02/13 07:56:34;;;;;;;12.70;7.63;;;1.70;3.20;;;;;;7362086;19;20010;-58
2022/02/13 07:59:04;;;;;;;13.88;7.18;;;1.80;3.00;;;;;;7382401;19;20002;-59
2022/02/13 08:01:34;;;;;;;15.98;8.68;;;1.90;2.30;;;;;;7355672;19;20086;-59
2022/02/13 08:04:04;;;;;;;14.20;7.55;;;2.00;1.70;;;;;;7358421;19;20010;-60
2022/02/13 08:06:34;;;;;;;13.30;7.85;;;2.10;1.50;;;;;;7364450;19;20006;-59
2022/02/13 08:09:03;;;;;;;11.45;7.07;;;2.20;1.10;;;;;;7368049;19;20077;-60
2022/02/13 08:11:36;;;;;;;13.63;7.60;;;2.20;1.00;;;;;;7365760;19;20065;-60
2022/02/13 08:14:06;;;;;;;15.63;7.72;;;2.30;1.00;;;;;;7384782;19;20355;-59
2022/02/13 08:16:36;;;;;;;9.77;7.22;;;2.40;1.00;;;;;;7366479;19;20477;-59
2022/02/13 08:19:05;;;;;;;11.18;7.28;;;2.40;1.00;;;;;;7367494;19;20018;-60
2022/02/13 08:21:35;;;;;;;10.52;7.05;;;2.50;1.00;;;;;;7367323;19;21021;-58
2022/02/13 08:24:06;;;;;;;17.23;6.93;;;2.60;1.00;;;;;;7364963;19;20014;-59
2022/02/13 08:26:38;;;;;;;11.07;7.05;;;2.70;1.00;;;;;;7369258;19;20105;-59
2022/02/13 08:29:08;;;;;;;11.27;7.20;;;2.80;1.00;;;;;;7387591;19;20018;-58
2022/02/13 08:31:38;;;;;;;14.10;7.53;;;3.00;1.00;;;;;;7363465;19;20017;-59
2022/02/13 08:34:08;;;;;;;11.65;6.75;;;3.20;1.00;;;;;;7364116;19;20029;-58
2022/02/13 08:36:38;;;;;;;10.48;7.00;;;3.40;1.00;;;;;;7365092;19;20011;-59
2022/02/13 08:39:08;;;;;;;11.43;7.10;;;3.50;1.00;;;;;;7365999;19;20776;-59
2022/02/13 08:41:40;;;;;;;10.95;6.78;;;3.60;1.00;;;;;;7367567;19;20061;-59
2022/02/13 08:44:10;;;;;;;12.73;6.68;;;3.70;1.00;;;;;;7383280;19;20076;-59
2022/02/13 08:46:40;;;;;;;10.30;6.65;;;3.70;1.00;;;;;;7364834;19;20007;-59
2022/02/13 08:49:10;;;;;;;14.55;7.50;;;3.70;1.00;;;;;;7367031;19;20010;-60
2022/02/13 08:51:40;;;;;;;14.85;7.65;;;3.80;1.00;;;;;;7364959;19;20010;-60
2022/02/13 08:54:10;;;;;;;10.27;7.03;;;3.80;1.00;;;;;;7361415;19;20028;-59
2022/02/13 08:56:42;;;;;;;12.50;7.70;;;3.90;1.00;;;;;;7368150;19;20010;-60
2022/02/13 08:59:12;;;;;;;14.02;7.45;;;3.90;1.00;;;;;;7387056;19;20181;-59
2022/02/13 09:01:43;;;;;;;13.85;6.60;;;4.00;1.00;;;;;;7363845;19;20066;-59
2022/02/13 09:04:13;;;;;;;11.30;7.10;;;4.10;1.00;;;;;;7362781;19;20070;-59
2022/02/13 09:06:43;;;;;;;13.77;7.30;;;4.30;1.00;;;;;;7367116;19;20006;-60
2022/02/13 09:09:13;;;;;;;11.13;7.28;;;4.40;1.00;;;;;;7365788;19;20019;-59
2022/02/13 09:11:45;;;;;;;13.23;7.25;;;4.50;1.00;;;;;;7365761;19;20094;-60
2022/02/13 09:14:15;;;;;;;12.32;7.10;;;4.60;1.00;;;;;;7362637;19;20085;-60
2022/02/13 09:16:45;;;;;;;12.70;7.45;;;4.70;1.00;;;;;;7384859;19;20082;-59
2022/02/13 09:19:16;;;;;;;13.70;6.95;;;4.70;1.00;;;;;;7365041;19;20349;-58
2022/02/13 09:21:51;;;;;;;10.85;6.75;;;4.80;1.00;;;;;;7363684;19;20077;-59
2022/02/13 09:24:22;;;;;;;17.17;7.55;;;4.90;1.00;;;;;;7359515;19;20086;-59
2022/02/13 09:26:54;;;;;;;17.55;6.63;;;5.00;1.00;;;;;;7366862;19;20013;-59
2022/02/13 09:29:24;;;;;;;10.70;7.15;;;5.10;1.00;;;;;;7365607;19;20077;-59
2022/02/13 09:31:54;;;;;;;12.80;7.38;;;5.20;1.00;;;;;;7383758;19;20114;-58
2022/02/13 09:34:28;;;;;;;10.00;6.70;;;5.30;1.00;;;;;;7361935;19;20019;-59
2022/02/13 09:36:58;;;;;;;15.15;7.20;;;5.40;1.00;;;;;;7364524;19;20542;-59
2022/02/13 09:39:29;;;;;;;10.40;6.80;;;5.60;1.00;;;;;;7362614;19;20014;-59
2022/02/13 09:42:02;;;;;;;10.10;6.25;;;5.70;1.00;;;;;;7364666;19;20023;-59
2022/02/13 09:44:31;;;;;;;10.88;6.70;;;5.80;1.00;;;;;;7360473;19;20049;-59
2022/02/13 09:47:02;;;;;;;11.40;7.63;;;5.80;1.00;;;;;;7384592;19;20014;-59
2022/02/13 09:49:31;;;;;;;12.30;6.93;;;6.00;1.00;;;;;;7364859;19;20057;-59
2022/02/13 09:52:05;;;;;;;9.48;6.38;;;6.10;1.00;;;;;;7363594;19;20520;-58
2022/02/13 09:54:35;;;;;;;14.55;7.50;;;6.20;1.00;;;;;;7359191;19;20027;-58
2022/02/13 09:59:57;;;;;;;;;;;6.40;1.00;;;;;;7365342;19;20017;-61
2022/02/13 10:02:34;;;;;;;12.13;6.43;;;6.50;1.00;;;;;;7359234;19;20817;-58
2022/02/13 10:05:09;;;;;;;12.25;6.78;;;6.60;1.00;;;;;;7386079;19;20017;-59
2022/02/13 10:07:42;;;;;;;11.30;6.60;;;6.70;1.00;;;;;;7366057;19;20010;-58
2022/02/13 10:10:14;;;;;;;14.63;7.10;;;6.80;1.00;;;;;;7363311;19;20092;-59
2022/02/13 10:12:49;;;;;;;11.10;6.88;;;6.90;1.00;;;;;;7357427;19;20011;-60
2022/02/13 10:15:44;;;;;;;9.45;6.63;;;7.00;1.00;;;;;;7364667;19;20176;-60
2022/02/13 10:18:16;;;;;;;13.27;6.80;;;7.10;1.00;;;;;;7362038;19;20531;-58
2022/02/13 10:20:47;;;;;;;14.30;7.00;;;7.20;1.00;;;;;;7365195;19;20486;-60
2022/02/13 10:23:18;;;;;;;10.02;6.20;;;7.30;1.00;;;;;;7359185;19;20270;-59
2022/02/13 10:25:48;;;;;;;9.85;6.28;;;7.40;1.00;;;;;;7383261;19;20102;-60
2022/02/13 10:28:21;;;;;;;13.80;6.68;;;7.50;1.00;;;;;;7361458;19;20102;-59
2022/02/13 10:30:52;;;;;;;11.35;6.95;;;7.60;1.00;;;;;;7365105;19;20013;-59
2022/02/13 10:33:25;;;;;;;12.68;6.32;;;7.70;1.00;;;;;;7358766;19;20392;-59
2022/02/13 10:36:07;;;;;;;10.82;6.40;;;7.80;1.00;;;;;;7363089;19;20534;-60
2022/02/13 10:38:38;;;;;;;11.27;7.03;;;7.90;1.00;;;;;;7361805;19;20035;-59
2022/02/13 10:41:20;;;;;;;11.10;6.78;;;7.90;1.00;;;;;;7383028;19;20021;-60
2022/02/13 10:44:01;;;;;;;12.05;6.90;;;8.00;1.00;;;;;;7357018;19;20085;-60
2022/02/13 10:46:33;;;;;;;15.18;7.50;;;8.20;1.00;;;;;;7362789;19;20467;-60
2022/02/13 10:49:03;;;;;;;13.65;7.38;;;8.10;1.00;;;;;;7362545;19;20022;-59
2022/02/13 10:51:34;;;;;;;18.85;7.75;;;8.30;1.00;;;;;;7361596;19;20425;-60
2022/02/13 10:54:05;;;;;;;11.32;7.38;;;8.40;1.00;;;;;;7358475;19;20568;-59
2022/02/13 10:56:37;;;;;;;13.02;7.80;;;8.40;1.00;;;;;;7365273;19;20103;-59
2022/02/13 10:59:11;;;;;;;12.38;7.30;;;8.50;1.00;;;;;;7382046;19;20013;-59
2022/02/13 11:01:44;;;;;;;15.55;7.70;;;8.70;1.00;;;;;;7361297;19;20519;-59
2022/02/13 11:04:14;;;;;;;11.77;6.10;;;8.70;1.00;;;;;;7359241;19;20010;-59
2022/02/13 11:06:44;;;;;;;15.77;7.20;;;9.00;1.00;;;;;;7362103;19;20006;-59
2022/02/13 11:09:20;;;;;;;11.05;6.15;;;9.00;1.00;;;;;;7362969;19;20027;-60
2022/02/13 11:11:51;;;;;;;12.32;5.80;;;9.40;1.00;;;;;;7362477;19;20502;-60
2022/02/13 11:14:40;;;;;;;7.80;4.97;;;9.60;1.00;;;;;;7354260;19;20057;-59
2022/02/13 11:17:11;;;;;;;15.90;5.35;;;9.80;1.00;;;;;;7383644;19;20014;-59
2022/02/13 11:19:46;;;;;;;12.55;5.00;;;10.10;1.00;;;;;;7362498;19;20018;-60
2022/02/13 11:22:18;;;;;;;12.40;4.82;;;10.10;1.00;;;;;;7359649;19;20007;-60
2022/02/13 11:24:54;;;;;;;10.43;4.80;;;10.20;1.00;;;;;;7357061;19;20074;-59
2022/02/13 11:27:25;;;;;;;11.20;4.82;;;10.20;1.00;;;;;;7363054;19;20031;-59
2022/02/13 11:30:01;;;;;;;7.53;4.88;;;10.30;1.00;;;;;;7359257;19;20042;-60
2022/02/13 11:32:39;;;;;;;8.25;5.20;;;10.50;1.00;;;;;;7352644;19;20000;-60
2022/02/13 11:35:12;;;;;;;12.18;5.40;;;10.50;1.00;;;;;;7383349;19;20597;-60
2022/02/13 11:37:47;;;;;;;7.32;4.63;;;10.40;1.00;;;;;;7357859;19;20018;-60
2022/02/13 11:40:31;;;;;;;;;;;10.50;1.00;;;;;;7359561;19;20025;-59
2022/02/13 11:43:02;;;;;;;6.80;4.27;;;10.40;1.00;;;;;;7361568;19;19907;-60
2022/02/13 11:45:44;;;;;;;11.52;4.78;;;10.60;1.00;;;;;;7369532;19;20243;-59
2022/02/13 11:48:43;;;;;;;7.70;4.43;;;10.60;1.00;;;;;;7368403;19;20400;-61
2022/02/13 11:51:14;;;;;;;7.45;4.28;;;10.60;1.00;;;;;;7364451;19;20027;-59
2022/02/13 11:53:46;;;;;;;8.68;4.65;;;10.60;1.00;;;;;;7366594;19;20355;-60
2022/02/13 11:56:23;;;;;;;11.60;5.03;;;10.70;1.00;;;;;;7365368;19;20092;-60
2022/02/13 11:58:55;;;;;;;7.35;4.53;;;10.80;1.00;;;;;;7387518;19;20078;-61
2022/02/13 12:01:44;;;;;;;10.43;4.70;;;10.80;1.00;;;;;;7364921;19;20044;-60
2022/02/13 12:04:19;;;;;;;8.77;4.90;;;10.70;1.00;;;;;;7361658;19;20039;-60
2022/02/13 12:06:54;;;;;;;8.13;4.95;;;10.80;1.00;;;;;;7363903;19;20093;-60
2022/02/13 12:09:29;;;;;;;9.70;4.63;;;10.80;1.00;;;;;;7366925;19;20002;-61
2022/02/13 12:11:59;;;;;;;11.00;4.25;;;10.80;1.00;;;;;;7365042;19;20011;-60
2022/02/13 12:14:29;;;;;;;7.80;4.35;;;10.80;1.00;;;;;;7358164;19;20021;-60
2022/02/13 12:17:02;;;;;;;7.88;4.25;;;10.80;1.00;;;;;;7387299;19;20474;-59
2022/02/13 12:19:35;;;;;;;7.57;4.15;;;10.90;1.00;;;;;;7365572;19;20142;-61
2022/02/13 12:22:13;;;;;;;10.73;4.53;;;11.00;1.00;;;;;;7360904;19;20015;-60
2022/02/13 12:24:44;;;;;;;6.32;3.80;;;10.80;1.00;;;;;;7361812;19;20015;-59
2022/02/13 12:27:17;;;;;;;7.43;4.40;;;11.00;1.00;;;;;;7367719;19;20010;-60
2022/02/13 12:29:54;;;;;;;9.18;4.43;;;11.20;1.00;;;;;;7365031;19;20433;-61
2022/02/13 12:32:32;;;;;;;8.32;3.67;;;11.10;1.00;;;;;;7364543;19;20002;-60
2022/02/13 12:35:03;;;;;;;7.78;4.13;;;11.20;1.00;;;;;;7389519;19;20049;-61
2022/02/13 12:37:41;;;;;;;9.02;4.47;;;11.10;1.00;;;;;;7365605;19;20821;-60
2022/02/13 12:40:13;;;;;;;6.28;3.60;;;11.10;1.00;;;;;;7365524;19;20131;-60
2022/02/13 12:42:45;;;;;;;7.45;4.30;;;11.10;1.00;;;;;;7362014;19;20851;-61
2022/02/13 12:45:17;;;;;;;6.72;4.03;;;11.10;1.00;;;;;;7367727;19;20013;-59
2022/02/13 12:47:53;;;;;;;6.43;3.63;;;11.30;1.00;;;;;;7365573;19;20003;-59
2022/02/13 12:50:25;;;;;;;7.38;3.88;;;11.30;1.00;;;;;;7368317;19;20039;-60
2022/02/13 12:52:59;;;;;;;7.47;3.55;;;11.30;1.00;;;;;;7378042;19;20089;-60
2022/02/13 12:55:29;;;;;;;8.68;3.85;;;11.30;1.00;;;;;;7364325;19;20014;-60
2022/02/13 12:58:01;;;;;;;8.45;4.38;;;11.40;1.00;;;;;;7366959;19;20012;-59
2022/02/13 13:00:35;;;;;;;8.70;3.97;;;11.40;1.00;;;;;;7366102;19;20010;-61
2022/02/13 13:03:33;;;;;;;13.10;3.78;;;11.50;1.00;;;;;;7358728;19;20024;-60
2022/02/13 13:06:03;;;;;;;9.00;3.78;;;11.50;1.00;;;;;;7366288;19;20010;-61
2022/02/13 13:08:43;;;;;;;9.75;3.90;;;11.40;1.00;;;;;;7366884;19;20746;-60
2022/02/13 13:11:14;;;;;;;5.35;3.50;;;11.50;1.00;;;;;;7382367;19;20002;-65
2022/02/13 13:13:45;;;;;;;6.70;3.45;;;11.50;1.00;;;;;;7383051;19;20466;-60
2022/02/13 13:16:21;;;;;;;10.65;3.83;;;11.50;1.00;;;;;;7365832;19;20496;-60
2022/02/13 13:18:58;;;;;;;5.13;3.33;;;11.50;1.00;;;;;;7364333;19;20039;-60
2022/02/13 13:21:30;;;;;;;7.07;3.42;;;11.40;1.00;;;;;;7362698;19;20007;-59
2022/02/13 13:24:22;;;;;;;8.25;4.03;;;11.60;1.00;;;;;;7353659;19;20013;-59